Date,TemperatureHighF,TemperatureAvgF,TemperatureLowF,DewpointHighF,DewpointAvgF,DewpointLowF,HumidityHigh,HumidityAvg,HumidityLow,PressureMaxIn,PressureMinIn,WindSpeedMaxMPH,WindSpeedAvgMPH,GustSpeedMaxMPH,PrecipitationSumIn
2013-1-1,59,49,41,24,20,17,44,33,22,0.00,40.00,11,6,18,0.00
2013-1-2,61,51,45,19,15,13,32,24,15,0.00,40.00,14,8,22,0.00
2013-1-3,63,53,42,18,14,9,38,21,12,0.00,40.00,15,8,25,0.00
2013-1-4,64,53,43,21,14,7,34,22,16,0.00,40.00,11,6,15,0.00
2013-1-5,65,51,40,21,17,14,36,27,15,0.00,40.00,8,5,12,0.00
2013-1-6,66,51,38,34,26,17,65,39,20,0.00,40.00,12,6,24,0.00
2013-1-7,65,54,46,41,30,21,77,45,20,0.00,40.00,14,6,24,0.00
2013-1-8,73,58,45,30,24,18,41,28,15,0.00,40.00,14,6,24,0.00
2013-1-9,73,61,52,31,28,24,44,30,16,0.00,40.00,11,6,15,0.00
2013-1-10,63,56,48,49,34,24,61,43,30,0.00,40.00,30,12,43,0.00
2013-1-11,57,48,40,31,22,12,58,37,17,0.00,40.00,14,5,23,0.00
2013-1-12,57,46,38,27,20,12,62,37,17,0.00,40.00,11,5,16,0.00
2013-1-13,55,45,37,15,7,3,33,22,12,0.00,40.00,9,6,15,0.00
2013-1-14,49,43,37,7,0,-5,21,16,11,0.00,40.00,14,11,28,0.00
2013-1-15,53,44,34,15,4,-4,36,20,12,0.00,40.00,15,9,26,0.00
2013-1-16,62,51,40,22,18,11,38,27,20,0.00,40.00,13,8,23,0.00
2013-1-17,69,58,47,23,20,16,37,23,15,0.00,40.00,16,9,24,0.00
2013-1-18,73,61,52,25,19,14,32,19,14,0.00,40.00,16,9,25,0.00
2013-1-19,73,60,51,25,20,17,34,22,14,0.00,40.00,14,6,23,0.00
2013-1-20,73,62,51,23,17,14,31,18,12,0.00,40.00,13,7,20,0.00
2013-1-21,75,64,54,18,13,9,23,14,9,0.00,40.00,14,8,26,0.00
2013-1-22,78,64,54,24,14,7,25,15,10,0.00,40.00,10,6,17,0.00
2013-1-23,79,65,55,39,24,17,34,21,14,0.00,40.00,11,5,16,0.00
2013-1-24,73,65,59,48,42,30,65,44,29,0.00,40.00,9,6,15,0.00
2013-1-25,71,63,58,58,52,45,100,69,45,0.00,40.00,10,6,18,0.50
2013-1-26,65,60,57,60,58,56,100,95,74,0.00,40.00,9,4,12,0.74
2013-1-27,70,61,54,60,55,42,100,83,59,0.00,40.00,10,5,18,0.06
2013-1-28,61,53,46,42,36,32,77,54,33,0.00,40.00,16,9,27,0.06
2013-1-29,63,51,40,40,36,33,86,59,35,0.00,40.00,8,4,13,0.00
2013-1-30,68,56,45,41,37,32,81,53,26,0.00,40.00,8,4,13,0.00
2013-1-31,71,61,48,40,37,34,66,42,26,0.00,40.00,12,6,17,0.00
2013-2-1,76,61,48,41,38,32,69,45,21,0.00,40.00,9,5,14,0.00
2013-2-2,77,65,54,41,38,33,57,39,21,0.00,40.00,8,6,13,0.00
2013-2-3,77,68,59,45,40,36,57,37,27,0.00,40.00,12,6,17,0.00
2013-2-4,77,65,53,44,39,33,67,41,22,0.00,40.00,9,5,16,0.00
2013-2-5,80,65,53,44,38,30,61,39,18,0.00,40.00,7,4,12,0.00
2013-2-6,77,65,55,44,41,38,59,43,25,0.00,40.00,8,4,12,0.00
2013-2-7,76,61,50,48,42,29,85,55,18,0.00,40.00,9,4,14,0.00
2013-2-8,65,57,51,44,35,27,74,45,24,0.00,40.00,17,11,29,0.00
2013-2-9,61,51,40,35,32,29,77,50,30,0.00,40.00,17,7,26,0.00
2013-2-10,62,53,43,33,31,28,65,44,28,0.00,40.00,9,5,15,0.00
2013-2-11,61,51,40,36,27,18,76,44,20,0.00,40.00,13,6,22,0.00
2013-2-12,63,52,38,25,16,5,60,28,10,0.00,40.00,13,6,20,0.00
2013-2-13,69,55,38,28,21,15,62,30,16,0.00,40.00,13,5,22,0.00
2013-2-14,75,61,41,32,27,24,66,30,17,0.00,40.00,14,6,23,0.00
2013-2-15,77,67,58,28,23,19,32,20,12,0.00,40.00,16,9,27,0.00
2013-2-16,81,66,53,28,22,16,32,20,9,0.00,40.00,11,6,17,0.00
2013-2-17,79,62,46,34,25,18,45,27,10,0.00,40.00,10,4,16,0.00
2013-2-18,76,62,50,36,29,18,44,29,19,0.00,40.00,9,4,13,0.00
2013-2-19,66,57,47,48,38,32,99,54,31,0.00,40.00,14,8,22,0.00
2013-2-20,59,52,46,41,33,24,76,50,26,0.00,40.00,18,9,27,0.00
2013-2-21,65,52,42,41,33,28,69,50,27,0.00,40.00,11,8,18,0.00
2013-2-22,69,56,42,40,30,16,86,47,14,0.00,40.00,9,5,17,0.00
2013-2-23,73,57,41,32,24,16,52,31,12,0.00,40.00,13,5,18,0.00
2013-2-24,64,57,49,34,11,4,55,18,9,0.00,40.00,20,12,36,0.00
2013-2-25,69,56,40,22,14,8,38,21,9,0.00,40.00,12,5,18,0.00
2013-2-26,72,57,43,23,15,8,39,21,9,0.00,40.00,14,8,25,0.00
2013-2-27,69,60,52,13,9,4,19,13,8,0.00,40.00,15,10,24,0.00
2013-2-28,76,62,50,19,9,-1,22,13,6,0.00,40.00,13,7,21,0.00
2013-3-1,83,64,49,35,23,16,38,22,9,0.00,40.00,9,4,16,0.00
2013-3-2,88,70,55,40,30,23,43,25,11,0.00,40.00,9,5,13,0.00
2013-3-3,78,66,54,43,34,29,48,32,17,0.00,40.00,8,4,9,0.00
2013-3-4,79,68,56,45,39,32,50,36,24,0.00,40.00,13,7,28,0.00
2013-3-5,81,68,56,43,40,36,60,39,21,0.00,40.00,9,5,12,0.00
2013-3-6,79,66,55,45,38,32,61,39,18,0.00,40.00,11,6,18,0.00
2013-3-7,75,65,55,42,39,37,55,40,25,0.00,40.00,13,6,21,0.00
2013-3-8,65,57,51,48,40,32,80,55,29,0.00,40.00,16,7,24,0.07
2013-3-9,69,57,45,40,36,34,70,48,29,0.00,40.00,13,8,23,0.01
2013-3-10,77,65,47,39,31,23,75,32,15,0.00,40.00,15,7,26,0.00
2013-3-11,82,66,52,37,29,22,46,27,11,0.00,40.00,9,4,14,0.00
2013-3-12,88,71,50,39,32,25,63,27,11,0.00,40.00,7,4,11,0.00
2013-3-13,93,75,56,44,35,30,51,26,11,0.00,40.00,8,4,12,0.00
2013-3-14,97,78,59,48,36,28,52,24,9,0.00,40.00,9,5,14,0.00
2013-3-15,94,78,58,46,40,31,56,29,11,0.00,40.00,7,4,13,0.00
2013-3-16,90,75,60,44,38,30,41,27,14,0.00,40.00,8,6,13,0.00
2013-3-17,89,73,58,50,42,36,59,37,16,0.00,40.00,12,6,16,0.00
2013-3-18,85,71,60,49,42,36,52,36,21,0.00,40.00,13,6,18,0.00
2013-3-19,87,72,57,50,43,37,59,39,20,0.00,40.00,7,4,13,0.00
2013-3-20,89,74,63,50,42,34,51,34,19,0.00,40.00,10,6,14,0.00
2013-3-21,84,73,66,47,41,34,46,32,25,0.00,40.00,10,5,14,0.00
2013-3-22,87,72,57,46,36,24,52,32,10,0.00,40.00,10,5,17,0.00
2013-3-23,80,69,57,49,22,6,74,27,6,0.00,40.00,14,8,27,0.00
2013-3-24,83,71,59,31,12,6,32,11,6,0.00,40.00,12,7,17,0.00
2013-3-25,89,73,55,32,22,15,33,17,7,0.00,40.00,9,4,14,0.00
2013-3-26,89,75,63,44,28,21,35,19,9,0.00,40.00,9,6,15,0.00
2013-3-27,87,73,62,36,30,24,29,21,15,0.00,40.00,8,5,15,0.00
2013-3-28,86,80,70,43,38,33,32,23,16,0.00,40.00,7,5,13,0.00
2013-3-29,89,74,61,48,42,35,57,35,17,0.00,40.00,9,5,12,0.00
2013-3-30,90,77,66,46,34,-100,48,25,9,0.00,40.00,7,4,13,0.00
2013-3-31,85,74,62,46,42,38,46,32,23,0.00,40.00,13,8,23,0.00
2013-4-1,81,69,58,43,39,27,55,35,14,0.00,40.00,16,10,23,0.00
2013-4-2,85,70,56,49,43,37,64,41,19,0.00,40.00,12,7,18,0.00
2013-4-3,93,75,58,49,39,30,51,30,11,0.00,40.00,10,5,15,0.00
2013-4-4,91,78,63,51,42,37,44,29,17,0.00,40.00,7,4,11,0.00
2013-4-5,88,75,64,44,41,35,48,31,16,0.00,40.00,13,7,22,0.00
2013-4-6,87,74,61,53,43,39,51,34,20,0.00,40.00,9,6,16,0.00
2013-4-7,89,76,63,52,47,42,59,38,20,0.00,40.00,9,5,14,0.00
2013-4-8,77,66,57,57,43,34,78,46,25,0.00,40.00,36,15,56,0.00
2013-4-9,78,65,54,38,30,19,53,30,11,0.00,40.00,16,9,25,0.00
2013-4-10,81,71,62,35,22,13,36,17,8,0.00,40.00,17,6,34,0.00
2013-4-11,90,75,57,31,23,18,32,16,7,0.00,40.00,16,9,21,0.00
2013-4-12,88,75,62,48,30,22,37,20,12,0.00,40.00,9,3,17,0.00
2013-4-13,92,77,59,50,38,28,54,28,10,0.00,40.00,15,10,30,0.00
2013-4-14,89,74,63,55,48,41,69,44,20,0.00,40.00,18,8,24,0.00
2013-4-15,82,70,59,54,48,39,80,48,25,0.00,40.00,17,8,23,0.00
2013-4-16,76,64,56,39,34,29,49,34,18,0.00,40.00,15,9,23,0.00
2013-4-17,76,65,51,38,23,7,53,26,8,0.00,40.00,14,9,24,0.00
2013-4-18,77,68,59,22,15,10,24,13,8,0.00,40.00,14,4,26,0.00
2013-4-19,86,70,52,36,21,13,44,18,7,0.00,40.00,8,4,15,0.00
2013-4-20,92,76,59,42,30,21,36,21,9,0.00,40.00,9,4,13,0.00
2013-4-21,95,80,66,37,27,18,28,16,6,0.00,40.00,11,6,21,0.00
2013-4-22,95,79,62,51,31,19,36,18,10,0.00,40.00,12,7,19,0.00
2013-4-23,91,78,65,49,28,5,48,22,6,0.00,40.00,15,7,25,0.00
2013-4-24,92,79,62,59,33,5,82,24,6,0.00,40.00,18,9,25,0.00
2013-4-25,82,72,61,49,42,39,54,36,22,0.00,40.00,12,7,18,0.00
2013-4-26,89,76,63,50,46,41,63,38,19,0.00,40.00,9,4,14,0.00
2013-4-27,98,80,62,54,42,31,57,30,10,0.00,40.00,12,4,17,0.00
2013-4-28,103,83,67,54,36,19,34,21,5,0.00,40.00,10,4,15,0.00
2013-4-29,103,85,70,53,36,26,37,20,7,0.00,40.00,9,5,14,0.00
2013-4-30,100,87,70,44,31,22,34,15,7,0.00,40.00,19,11,30,0.00
2013-5-1,95,80,66,53,44,8,58,33,6,0.00,40.00,15,8,23,0.00
2013-5-2,90,81,68,30,12,3,23,8,5,0.00,40.00,23,13,38,0.00
2013-5-3,97,81,66,37,23,14,23,13,5,0.00,40.00,16,6,24,0.00
2013-5-4,97,82,68,52,34,23,39,20,7,0.00,40.00,15,7,28,0.00
2013-5-5,89,77,64,50,40,34,59,28,16,0.00,40.00,18,7,26,0.00
2013-5-6,84,72,63,49,47,45,58,43,27,0.00,40.00,16,8,30,0.00
2013-5-7,80,70,60,47,45,42,62,42,30,0.00,40.00,14,6,25,0.00
2013-5-8,82,70,58,47,41,35,58,38,21,0.00,40.00,8,5,15,0.00
2013-5-9,86,73,59,49,44,36,62,39,17,0.00,40.00,10,6,14,0.00
2013-5-10,94,77,63,52,44,-100,55,36,17,0.00,40.00,10,4,14,0.00
2013-5-11,100,85,71,48,38,-100,38,22,9,0.00,40.00,11,5,20,0.00
2013-5-12,104,88,75,54,40,31,36,20,8,0.00,40.00,8,4,17,0.00
2013-5-13,105,90,74,50,40,28,35,19,8,0.00,40.00,13,5,18,0.00
2013-5-14,103,89,76,53,45,39,44,23,12,0.00,40.00,16,8,24,0.00
2013-5-15,100,84,70,57,47,38,59,31,12,0.00,40.00,13,6,18,0.00
2013-5-16,100,76,68,52,30,-100,54,29,10,0.00,40.00,17,8,25,0.00
2013-5-17,93,80,72,47,38,-100,40,26,17,0.00,40.00,15,6,20,0.00
2013-5-18,91,78,62,50,45,40,56,34,17,0.00,40.00,12,6,18,0.00
2013-5-19,94,81,67,54,46,39,63,31,18,0.00,40.00,10,6,16,0.00
2013-5-20,96,84,69,52,37,28,51,24,9,0.00,40.00,16,7,27,0.00
2013-5-21,101,86,66,45,34,25,39,17,7,0.00,40.00,9,4,16,0.00
2013-5-22,102,86,72,49,37,22,33,20,7,0.00,40.00,9,6,22,0.00
2013-5-23,95,83,71,41,23,18,28,12,7,0.00,40.00,7,5,15,0.00
2013-5-24,96,81,66,54,38,29,45,24,11,0.00,40.00,9,5,16,0.00
2013-5-25,97,83,71,61,39,27,70,26,9,0.00,40.00,9,5,16,0.00
2013-5-26,95,80,67,42,32,24,34,19,8,0.00,40.00,9,5,15,0.00
2013-5-27,95,82,70,47,40,34,37,24,12,0.00,40.00,11,5,19,0.00
2013-5-28,96,82,68,51,45,41,39,28,18,0.00,40.00,11,6,19,0.00
2013-5-29,97,82,68,55,50,47,56,35,19,0.00,40.00,15,6,22,0.00
2013-5-30,94,83,72,60,55,52,58,40,27,0.00,40.00,16,10,31,0.00
2013-5-31,100,85,72,62,56,52,65,41,20,0.00,40.00,10,6,16,0.00
2013-6-1,107,91,76,58,50,41,48,28,11,0.00,40.00,7,4,13,0.00
2013-6-2,107,91,77,53,43,35,34,21,10,0.00,40.00,17,10,23,0.00
2013-6-3,102,88,76,55,47,38,42,26,11,0.00,40.00,16,11,24,0.00
2013-6-4,102,88,72,51,47,42,43,26,14,0.00,40.00,12,9,20,0.00
2013-6-5,105,90,76,51,41,34,34,20,9,0.00,40.00,9,4,20,0.00
2013-6-6,108,92,75,50,43,35,37,20,9,0.00,40.00,9,6,16,0.00
2013-6-7,111,93,78,52,40,33,30,18,8,0.00,40.00,9,5,14,0.00
2013-6-8,102,89,79,63,52,36,55,30,18,0.00,40.00,19,12,28,0.00
2013-6-9,103,88,74,62,49,36,54,30,12,0.00,40.00,15,10,22,0.00
2013-6-10,107,91,72,49,42,31,44,21,8,0.00,40.00,15,8,21,0.00
2013-6-11,107,91,73,47,39,27,39,19,7,0.00,40.00,6,4,10,0.00
2013-6-12,105,92,77,65,50,43,60,26,13,0.00,40.00,15,9,22,0.00
2013-6-13,104,91,78,57,50,43,49,26,13,0.00,40.00,12,7,16,0.00
2013-6-14,104,89,78,57,47,36,44,25,11,0.00,40.00,13,9,20,0.00
2013-6-15,104,90,77,54,46,33,41,25,9,0.00,40.00,12,7,18,0.00
2013-6-16,106,90,74,40,30,18,26,14,5,0.00,40.00,8,4,14,0.00
2013-6-17,107,92,76,52,41,30,38,19,7,0.00,40.00,10,4,15,0.00
2013-6-18,106,92,76,47,38,26,31,17,7,0.00,40.00,11,6,16,0.00
2013-6-19,104,89,76,53,35,21,33,17,6,0.00,40.00,8,4,16,0.00
2013-6-20,104,85,70,62,51,36,67,36,10,0.00,40.00,6,4,13,0.00
2013-6-21,104,102,99,49,46,43,18,15,13,0.00,40.00,9,7,14,0.00
2013-6-22,106,95,77,59,44,33,45,21,9,0.00,40.00,10,6,14,0.00
2013-6-23,103,90,74,59,48,40,45,26,12,0.00,40.00,12,7,18,0.00
2013-6-24,101,88,76,60,48,40,53,27,13,0.00,40.00,15,6,23,0.00
2013-6-25,101,89,73,60,52,48,49,31,19,0.00,40.00,9,4,16,0.00
2013-6-26,105,94,82,59,49,41,46,23,12,0.00,40.00,14,9,21,0.00
2013-6-27,110,93,77,64,55,40,45,29,17,0.00,40.00,11,6,19,0.00
2013-6-28,116,97,83,64,53,40,45,28,9,0.00,40.00,10,5,17,0.00
2013-6-29,111,99,88,63,56,48,41,24,15,0.00,40.00,16,7,23,0.00
2013-6-30,111,95,85,66,61,57,49,34,18,0.00,40.00,17,9,23,0.00
2013-7-1,110,98,88,67,61,54,49,33,17,0.00,40.00,21,8,29,0.00
2013-7-2,108,96,84,70,61,55,63,35,18,0.00,40.00,20,11,33,0.00
2013-7-3,111,96,82,64,57,49,47,31,14,0.00,40.00,11,7,19,0.00
2013-7-4,107,94,84,69,63,55,58,38,22,0.00,40.00,23,14,38,0.00
2013-7-5,104,92,84,69,60,50,58,37,17,0.00,40.00,16,10,22,0.00
2013-7-6,108,92,83,59,53,47,42,29,14,0.00,40.00,11,6,16,0.00
2013-7-7,113,97,82,56,52,47,38,24,12,0.00,40.00,8,4,13,0.00
2013-7-8,111,94,84,69,61,53,51,35,17,0.00,40.00,14,8,19,0.00
2013-7-9,104,90,84,72,69,65,63,50,29,0.00,40.00,20,13,32,0.00
2013-7-10,99,88,83,74,64,-100,72,49,31,0.00,40.00,21,10,34,0.00
2013-7-11,101,90,82,70,67,59,66,49,27,0.00,40.00,14,5,21,0.00
2013-7-12,106,92,80,70,64,60,64,42,23,0.00,40.00,13,6,20,0.00
2013-7-13,107,95,83,65,61,59,49,34,22,0.00,40.00,13,7,19,0.00
2013-7-14,110,97,86,67,64,61,51,35,22,0.00,40.00,14,6,22,0.00
2013-7-15,110,97,86,65,61,55,47,33,18,0.00,40.00,15,8,22,0.00
2013-7-16,104,100,91,66,56,38,44,26,11,0.00,40.00,10,7,17,0.00
2013-7-17,107,96,85,66,57,43,48,28,14,0.00,40.00,8,4,12,0.00
2013-7-18,112,99,84,66,55,48,37,25,14,0.00,40.00,15,6,21,0.00
2013-7-19,98,90,84,75,71,63,75,55,37,0.00,40.00,17,13,27,0.00
2013-7-20,99,86,80,75,69,-100,85,60,37,0.00,40.00,15,8,22,0.02
2013-7-21,89,84,75,75,73,66,93,71,48,0.00,40.00,13,8,25,0.43
2013-7-22,97,86,78,78,72,64,99,65,34,0.00,40.00,13,5,18,0.03
2013-7-23,102,91,80,75,69,63,80,51,30,0.00,40.00,12,6,18,0.00
2013-7-24,106,95,85,69,65,63,56,39,25,0.00,40.00,11,6,17,0.00
2013-7-25,99,90,82,75,67,58,64,48,35,0.00,40.00,9,5,16,0.10
2013-7-26,106,95,86,69,64,58,57,37,22,0.00,40.00,11,6,16,0.02
2013-7-27,108,96,86,67,61,55,45,32,21,0.00,40.00,13,7,21,0.00
2013-7-28,109,96,85,64,52,38,47,26,13,0.00,40.00,13,5,20,0.00
2013-7-29,106,92,79,63,53,41,37,27,19,0.00,40.00,16,8,23,0.00
2013-7-30,105,94,83,62,57,53,47,31,19,0.00,40.00,14,10,23,0.00
2013-7-31,109,96,82,61,53,41,47,26,14,0.00,40.00,13,6,19,0.00
2013-8-1,108,96,85,57,47,40,27,19,10,0.00,40.00,20,8,27,0.00
2013-8-2,105,92,81,65,54,43,53,32,13,0.00,40.00,14,8,19,0.00
2013-8-3,106,92,79,57,48,25,42,26,6,0.00,40.00,12,8,20,0.00
2013-8-4,108,95,80,58,48,30,42,24,7,0.00,40.00,12,6,18,0.00
2013-8-5,101,91,79,75,55,41,63,31,16,0.00,40.00,17,10,26,0.00
2013-8-6,103,92,81,72,63,57,65,41,23,0.00,40.00,14,10,25,0.00
2013-8-7,105,92,79,68,48,15,59,31,4,0.00,40.00,8,5,16,0.00
2013-8-8,107,92,78,49,40,29,36,19,7,0.00,40.00,10,5,25,0.00
2013-8-9,106,92,78,54,40,29,35,19,7,0.00,40.00,11,5,17,0.00
2013-8-10,103,94,82,63,43,28,46,20,9,0.00,40.00,13,8,19,0.00
2013-8-11,106,91,75,53,41,25,37,21,6,0.00,40.00,8,4,14,0.00
2013-8-12,106,91,74,59,49,37,50,27,10,0.00,40.00,7,4,19,0.00
2013-8-13,105,90,77,59,47,-100,37,24,17,0.00,40.00,14,7,19,0.00
2013-8-14,107,92,78,76,58,-100,92,41,15,0.00,40.00,11,6,17,0.00
2013-8-15,111,93,85,66,54,-100,53,31,17,0.00,40.00,10,6,18,0.00
2013-8-16,112,96,85,65,58,-100,49,32,17,0.00,40.00,13,5,19,0.00
2013-8-17,112,98,87,66,56,-100,41,27,15,0.00,40.00,11,6,18,0.00
2013-8-18,110,100,91,66,59,50,42,27,17,0.00,40.00,15,7,30,0.00
2013-8-19,108,95,89,63,55,-100,40,29,17,0.00,40.00,13,6,18,0.00
2013-8-20,112,96,83,68,59,51,55,31,14,0.00,40.00,12,5,22,0.00
2013-8-21,111,98,88,70,61,54,50,31,16,0.00,40.00,13,7,22,0.00
2013-8-22,106,92,82,75,70,58,66,52,27,0.00,40.00,17,9,47,0.00
2013-8-23,103,93,82,71,67,63,69,46,30,0.00,40.00,10,7,21,0.00
2013-8-24,99,87,76,76,69,-100,82,59,37,0.00,40.00,16,10,28,0.04
2013-8-25,88,84,78,75,71,65,84,66,49,0.00,40.00,9,3,15,0.04
2013-8-26,96,84,75,74,70,68,92,66,40,0.00,40.00,16,9,22,0.18
2013-8-27,98,85,81,72,70,66,75,61,36,0.00,40.00,6,2,10,0.06
2013-8-28,106,98,81,72,67,64,71,39,26,0.00,40.00,21,9,42,0.00
2013-8-29,94,84,78,76,74,70,87,73,51,0.00,40.00,17,7,28,0.20
2013-8-30,99,88,82,77,73,68,85,63,40,0.00,40.00,8,2,13,0.05
2013-8-31,103,92,85,75,68,-100,72,49,30,0.00,40.00,15,4,35,0.00
2013-9-1,105,94,83,70,65,59,61,41,23,0.00,40.00,8,4,19,0.00
2013-9-2,105,94,83,70,67,62,63,43,26,0.00,40.00,16,6,25,0.00
2013-9-3,110,96,83,68,64,59,61,38,20,0.00,40.00,13,4,22,0.00
2013-9-4,104,91,82,73,68,60,68,49,24,0.00,40.00,15,8,26,0.03
2013-9-5,110,93,80,73,66,54,78,47,17,0.00,40.00,8,3,12,0.03
2013-9-6,107,93,84,70,63,56,62,39,19,0.00,40.00,19,7,35,0.00
2013-9-7,99,86,81,69,64,-100,67,51,31,0.00,40.00,14,6,25,0.00
2013-9-8,101,88,77,71,66,62,80,52,29,0.00,40.00,12,5,21,0.00
2013-9-9,99,85,73,73,66,61,90,56,29,0.00,40.00,16,7,29,0.36
2013-9-10,95,84,73,74,68,64,98,64,37,0.00,40.00,9,5,14,0.52
2013-9-11,98,87,79,75,68,56,84,56,26,0.00,40.00,9,4,13,0.02
2013-9-12,103,91,81,71,62,51,71,43,18,0.00,40.00,6,4,12,0.00
2013-9-13,106,92,78,60,55,49,54,30,15,0.00,40.00,8,3,17,0.00
2013-9-14,109,94,83,63,53,-100,46,28,15,0.00,40.00,7,3,14,0.00
2013-9-15,111,97,83,59,52,44,45,26,12,0.00,40.00,8,4,10,0.00
2013-9-16,111,97,84,60,51,42,40,24,10,0.00,40.00,8,3,12,0.00
2013-9-17,108,95,82,57,47,37,40,22,9,0.00,40.00,10,4,18,0.00
2013-9-18,90,82,76,51,43,33,36,27,13,0.00,40.00,9,2,14,0.00
2013-9-19,102,87,73,63,52,45,50,33,16,0.00,40.00,7,3,11,0.00
2013-9-20,102,88,76,66,60,47,70,44,16,0.00,40.00,13,6,16,0.00
2013-9-21,101,86,78,71,57,-100,66,43,16,0.00,40.00,13,7,21,0.00
2013-9-22,90,80,69,51,42,29,44,29,12,0.00,40.00,15,6,24,0.00
2013-9-23,98,83,65,40,35,30,37,19,10,0.00,40.00,9,3,17,0.00
2013-9-24,98,84,69,62,44,37,61,27,12,0.00,40.00,10,5,15,0.00
2013-9-25,96,82,70,65,51,35,75,40,15,0.00,40.00,9,6,23,0.00
2013-9-26,85,76,70,45,34,24,41,22,16,0.00,40.00,16,10,27,0.00
2013-9-27,86,75,63,48,32,25,57,24,11,0.00,40.00,15,9,26,0.00
2013-9-28,94,77,61,39,28,-100,31,18,8,0.00,40.00,8,4,14,0.00
2013-9-29,96,82,67,40,33,27,30,18,9,0.00,40.00,7,3,12,0.00
2013-9-30,97,83,65,47,41,36,43,24,13,0.00,40.00,8,4,14,0.00
2013-10-1,96,84,74,50,48,44,42,29,20,0.00,40.00,10,8,14,0.00
2013-10-2,94,81,70,61,52,45,54,39,21,0.00,40.00,13,6,23,0.00
2013-10-3,94,80,69,63,52,40,68,43,16,0.00,40.00,11,5,23,0.00
2013-10-4,85,77,69,46,22,12,44,15,7,0.00,40.00,18,8,31,0.00
2013-10-5,84,75,66,26,23,19,19,14,9,0.00,40.00,14,6,24,0.00
2013-10-6,94,79,65,30,24,17,22,14,6,0.00,40.00,10,5,17,0.00
2013-10-7,96,80,63,37,27,21,24,16,7,0.00,40.00,6,2,14,0.00
2013-10-8,93,77,63,54,37,30,56,26,11,0.00,40.00,8,5,15,0.00
2013-10-9,79,70,63,54,43,40,58,39,26,0.00,40.00,20,10,30,0.00
2013-10-10,75,67,58,47,40,36,62,40,24,0.00,40.00,14,7,24,0.00
2013-10-11,84,69,54,44,39,36,68,36,18,0.00,40.00,6,3,13,0.00
2013-10-12,87,72,57,43,38,-100,59,33,17,0.00,40.00,7,3,12,0.00
2013-10-13,87,74,62,57,45,36,56,37,20,0.00,40.00,12,5,16,0.00
2013-10-14,87,74,61,42,35,30,50,27,14,0.00,40.00,13,6,20,0.00
2013-10-15,86,74,60,41,31,25,40,22,11,0.00,40.00,12,6,21,0.00
2013-10-16,84,73,62,33,28,25,30,19,12,0.00,40.00,14,6,23,0.00
2013-10-17,89,72,54,36,28,21,49,23,9,0.00,40.00,6,2,13,0.00
2013-10-18,91,73,58,34,27,22,32,20,9,0.00,40.00,13,5,20,0.00
2013-10-19,91,75,60,36,27,-100,40,18,9,0.00,40.00,8,4,14,0.00
2013-10-20,93,75,57,40,31,25,43,22,9,0.00,40.00,6,4,9,0.00
2013-10-21,92,76,61,44,38,33,42,28,13,0.00,40.00,6,2,11,0.00
2013-10-22,94,77,60,45,34,24,50,25,8,0.00,40.00,10,4,15,0.00
2013-10-23,92,76,60,38,32,24,39,22,9,0.00,40.00,8,3,13,0.00
2013-10-24,89,75,61,57,43,34,41,32,20,0.00,40.00,9,4,11,0.00
2013-10-25,91,75,60,62,48,38,76,44,18,0.00,40.00,8,3,10,0.00
2013-10-26,93,76,63,44,36,-100,44,26,13,0.00,40.00,10,4,15,0.00
2013-10-27,92,76,62,48,40,34,48,30,13,0.00,40.00,11,4,19,0.00
2013-10-28,83,70,63,51,45,-100,58,43,22,0.00,40.00,15,5,25,0.00
2013-10-29,73,65,59,46,42,39,54,44,34,0.00,40.00,14,2,22,0.00
2013-10-30,77,64,53,45,38,32,66,42,21,0.00,40.00,9,3,16,0.00
2013-10-31,79,66,55,37,32,27,48,30,15,0.00,40.00,10,4,20,0.00
2013-11-1,84,69,52,37,32,28,52,28,14,0.00,40.00,8,3,13,0.00
2013-11-2,84,70,56,38,31,-100,50,26,14,0.00,40.00,7,4,11,0.00
2013-11-3,84,70,57,42,33,28,44,26,15,0.00,40.00,6,3,12,0.00
2013-11-4,78,66,54,60,40,35,74,41,22,0.00,40.00,12,4,19,0.00
2013-11-5,75,66,57,43,24,15,55,22,11,0.00,40.00,16,6,26,0.00
2013-11-6,77,66,55,27,18,14,32,17,11,0.00,40.00,13,4,19,0.00
2013-11-7,83,70,57,30,20,15,32,16,9,0.00,40.00,9,4,16,0.00
2013-11-8,85,70,57,34,26,20,39,20,12,0.00,40.00,7,2,12,0.00
2013-11-9,84,68,55,39,32,-100,46,29,15,0.00,40.00,8,2,10,0.00
2013-11-10,85,72,58,42,35,31,42,28,15,0.00,40.00,6,2,9,0.00
2013-11-11,88,73,55,39,34,30,46,26,14,0.00,40.00,9,4,15,0.00
2013-11-12,90,78,67,38,30,26,34,18,11,0.00,40.00,10,4,16,0.00
2013-11-13,90,79,70,46,38,24,41,24,14,0.00,40.00,11,3,20,0.00
2013-11-14,88,75,65,43,37,29,35,26,13,0.00,40.00,8,4,16,0.00
2013-11-15,86,71,59,60,48,36,73,47,17,0.00,40.00,15,5,23,0.00
2013-11-16,74,63,53,45,40,-100,63,46,28,0.00,40.00,8,2,17,0.00
2013-11-17,75,64,54,51,45,40,62,51,39,0.00,40.00,7,3,10,0.00
2013-11-18,79,65,54,53,48,45,76,56,33,0.00,40.00,6,2,11,0.00
2013-11-19,75,64,54,51,47,44,75,56,36,0.00,40.00,8,1,13,0.00
2013-11-20,77,65,56,56,48,44,72,55,35,0.00,40.00,6,2,13,0.00
2013-11-21,75,64,57,62,56,50,100,77,48,0.00,40.00,9,3,18,0.41
2013-11-22,60,57,52,58,55,51,100,94,83,0.00,40.00,9,0,13,0.81
2013-11-23,61,54,51,52,48,-100,100,82,66,0.00,40.00,11,3,17,0.29
2013-11-24,65,58,51,49,47,45,86,69,50,0.00,40.00,7,2,14,0.00
2013-11-25,69,58,48,49,45,39,92,64,34,0.00,40.00,9,3,17,0.00
2013-11-26,73,61,52,46,45,43,77,58,36,0.00,40.00,7,5,13,0.00
2013-11-27,72,62,53,46,40,34,72,47,26,0.00,40.00,13,4,21,0.00
2013-11-28,74,61,51,47,39,34,69,47,26,0.00,40.00,10,4,17,0.00
2013-11-29,73,61,51,46,43,40,80,55,30,0.00,40.00,7,3,10,0.00
2013-11-30,74,62,53,45,40,-100,74,48,28,0.00,40.00,12,4,17,0.00
2013-12-1,75,64,54,44,39,37,63,41,26,0.00,40.00,11,5,19,0.00
2013-12-2,78,64,53,42,38,34,65,40,20,0.00,40.00,9,3,13,0.00
2013-12-3,77,64,56,59,46,38,88,54,34,0.00,40.00,14,6,21,0.00
2013-12-4,64,59,50,47,36,22,75,46,23,0.00,40.00,15,1,21,0.00
2013-12-5,61,51,44,25,20,16,42,29,21,0.00,40.00,10,6,16,0.00
2013-12-6,62,52,43,31,24,19,52,35,23,0.00,40.00,9,5,15,0.00
2013-12-7,63,52,42,39,32,-100,70,48,30,0.00,40.00,11,3,18,0.00
2013-12-8,60,53,45,39,23,12,63,34,20,0.00,40.00,13,4,20,0.00
2013-12-9,53,47,39,12,7,5,28,20,14,0.00,40.00,17,6,28,0.00
2013-12-10,58,49,42,12,7,4,22,18,14,0.00,40.00,12,4,20,0.00
2013-12-11,64,53,45,23,15,10,35,22,16,0.00,40.00,12,4,19,0.00
2013-12-12,68,58,50,30,22,18,41,25,17,0.00,40.00,11,4,18,0.00
2013-12-13,71,56,43,37,33,30,68,43,24,0.00,40.00,7,2,11,0.00
2013-12-14,70,59,48,31,22,-100,42,26,17,0.00,40.00,15,7,23,0.00
2013-12-15,71,60,53,30,26,22,36,27,18,0.00,40.00,12,5,21,0.00
2013-12-16,78,65,53,30,26,22,35,24,15,0.00,40.00,12,6,17,0.00
2013-12-17,79,66,55,34,30,27,37,27,16,0.00,40.00,9,5,17,0.00
2013-12-18,75,65,57,41,33,28,54,31,19,0.00,40.00,8,4,14,0.00
2013-12-19,71,58,45,54,45,39,100,65,34,0.00,40.00,14,3,22,0.03
2013-12-20,67,56,47,48,41,33,95,61,28,0.00,40.00,12,2,19,0.06
2013-12-21,66,53,43,47,40,-100,92,64,35,0.00,40.00,7,4,11,0.01
2013-12-22,69,56,47,49,46,43,91,70,43,0.00,40.00,8,3,10,0.00
2013-12-23,71,57,45,47,35,28,87,49,21,0.00,40.00,9,4,15,0.00
2013-12-24,73,61,49,36,33,29,51,36,22,0.00,40.00,12,5,19,0.00
2013-12-25,72,63,53,35,26,20,42,26,16,0.00,40.00,18,5,26,0.00
2013-12-26,73,60,50,23,19,15,31,21,12,0.00,40.00,11,5,17,0.00
2013-12-27,76,61,47,23,18,15,38,20,10,0.00,40.00,10,4,17,0.00
2013-12-28,68,58,51,33,25,-100,43,30,19,0.00,40.00,7,2,10,0.00
2013-12-29,70,58,46,31,23,17,53,28,14,0.00,40.00,19,6,29,0.00
2013-12-30,71,59,47,22,18,12,34,21,12,0.00,40.00,8,3,13,0.00
2013-12-31,73,58,48,23,21,17,35,24,14,0.00,40.00,10,3,14,0.00
2014-1-1,74,60,48,25,20,18,33,22,12,0.00,40.00,11,4,17,0.00
2014-1-2,77,62,50,30,26,22,38,26,14,0.00,40.00,9,4,14,0.00